CHS74 UKFF-LTCM
Flight info
| Callsign | CHS74 |
|---|---|
| Flight time | N/A |
| Altitude | 15000 |
| Route | SIN |
| Aircraft | AN24/M-SDFGRWY/LB1 |
Departure
| Time | 2026-05-04 10:26 |
|---|---|
| Airport | Simferopol International Airport (UKFF) |
Arrival
| Time | N/A |
|---|---|
| Airport | Sinop Airport (LTCM) |
| Time | Latitude | Longitude | Altitude | Speed | Heading |
|---|---|---|---|---|---|
| 2026-05-04 10:09 | 45.03522 | 33.98586 | 621 ft | 0 kts | 275° |
| 2026-05-04 10:20 | 45.03523 | 33.98571 | 621 ft | 0 kts | 274° |
| 2026-05-04 10:20 | 45.03523 | 33.98557 | 620 ft | 0 kts | 273° |
| 2026-05-04 10:21 | 45.03524 | 33.98555 | 620 ft | 0 kts | 273° |
| 2026-05-04 10:21 | 45.03524 | 33.98535 | 620 ft | 0 kts | 272° |
| 2026-05-04 10:21 | 45.03524 | 33.98533 | 620 ft | 0 kts | 273° |
| 2026-05-04 10:22 | 45.03524 | 33.98452 | 619 ft | 17 kts | 261° |
| 2026-05-04 10:23 | 45.03474 | 33.98382 | 617 ft | 13 kts | 208° |
| 2026-05-04 10:23 | 45.03376 | 33.98289 | 615 ft | 20 kts | 219° |
| 2026-05-04 10:25 | 45.03469 | 33.96927 | 598 ft | 16 kts | 337° |
| 2026-05-04 10:25 | 45.03683 | 33.96837 | 600 ft | 30 kts | 356° |
| 2026-05-04 10:25 | 45.03881 | 33.96883 | 597 ft | 50 kts | 13° |
| 2026-05-04 10:25 | 45.04512 | 33.97097 | 591 ft | 129 kts | 12° |
| 2026-05-04 10:26 | 45.05520 | 33.97476 | 733 ft | 165 kts | 14° |
| 2026-05-04 10:26 | 45.06650 | 33.98025 | 1077 ft | 183 kts | 20° |
| 2026-05-04 10:26 | 45.07898 | 33.98754 | 1333 ft | 197 kts | 22° |
| 2026-05-04 10:26 | 45.09147 | 33.99544 | 1704 ft | 198 kts | 14° |
| 2026-05-04 10:27 | 45.10467 | 33.99799 | 2214 ft | 190 kts | 0° |
| 2026-05-04 10:27 | 45.11778 | 33.99750 | 2565 ft | 192 kts | 344° |
| 2026-05-04 10:27 | 45.12980 | 33.98878 | 2708 ft | 199 kts | 316° |
| 2026-05-04 10:27 | 45.13645 | 33.97217 | 3072 ft | 192 kts | 278° |
| 2026-05-04 10:28 | 45.13606 | 33.95451 | 3688 ft | 175 kts | 257° |
| 2026-05-04 10:28 | 45.13338 | 33.93826 | 4224 ft | 168 kts | 252° |
| 2026-05-04 10:28 | 45.12815 | 33.92300 | 4432 ft | 179 kts | 236° |
| 2026-05-04 10:28 | 45.12060 | 33.90881 | 4762 ft | 183 kts | 224° |
| 2026-05-04 10:29 | 45.10923 | 33.89945 | 4969 ft | 193 kts | 202° |
| 2026-05-04 10:29 | 45.09636 | 33.89628 | 5497 ft | 186 kts | 187° |
| 2026-05-04 10:29 | 45.08388 | 33.89712 | 6022 ft | 180 kts | 171° |
| 2026-05-04 10:29 | 45.07179 | 33.90064 | 6433 ft | 180 kts | 173° |
| 2026-05-04 10:30 | 45.05918 | 33.90362 | 6694 ft | 187 kts | 173° |
| 2026-05-04 10:30 | 45.04610 | 33.90664 | 7014 ft | 191 kts | 173° |